createdAt,value
2022-08-30T00:01:06.784Z,101199.42
2022-08-30T00:03:43.628Z,101193.73
2022-08-30T00:06:17.922Z,101195.92
2022-08-30T00:08:51.043Z,101190.48
2022-08-30T00:11:25.143Z,101193.69
2022-08-30T00:13:59.945Z,101193.95
2022-08-30T00:16:32.138Z,101196.63
2022-08-30T00:19:04.160Z,101194.35
2022-08-30T00:21:35.981Z,101192.99
2022-08-30T00:24:08.976Z,101192.83
2022-08-30T00:26:40.838Z,101196.23
2022-08-30T00:29:12.764Z,101194.58
2022-08-30T00:31:44.681Z,101193.08
2022-08-30T00:34:18.699Z,101191.48
2022-08-30T00:36:50.801Z,101190.95
2022-08-30T00:39:22.681Z,101191.98
2022-08-30T00:41:54.633Z,101194.98
2022-08-30T00:44:27.497Z,101187.59
2022-08-30T00:46:59.412Z,101188.95
2022-08-30T00:49:32.150Z,101187.95
2022-08-30T00:52:05.282Z,101179.39
2022-08-30T00:54:41.402Z,101180.13
2022-08-30T00:57:15.677Z,101182.78
2022-08-30T00:59:49.554Z,101180.75
2022-08-30T01:02:23.861Z,101181.06
2022-08-30T01:04:58.386Z,101179.58
2022-08-30T01:07:30.261Z,101180.97
2022-08-30T01:10:02.420Z,101177.21
2022-08-30T01:12:34.609Z,101175.69
2022-08-30T01:15:15.379Z,101174.77
2022-08-30T01:17:49.982Z,101172.76
2022-08-30T01:20:35.932Z,101173.34
2022-08-30T01:23:17.118Z,101173.58
2022-08-30T01:25:51.214Z,101173.23
2022-08-30T01:28:25.976Z,101172.56
2022-08-30T01:31:01.246Z,101170.98
2022-08-30T01:33:33.531Z,101172.37
2022-08-30T01:36:10.901Z,101170.93
2022-08-30T01:38:47.532Z,101173.55
2022-08-30T01:41:26.127Z,101175.20
2022-08-30T01:44:00.034Z,101174.00
2022-08-30T01:46:36.203Z,101172.67
2022-08-30T01:49:11.409Z,101172.45
2022-08-30T01:51:46.817Z,101169.90
2022-08-30T01:54:18.678Z,101168.92
2022-08-30T01:56:51.427Z,101165.52
2022-08-30T01:59:23.223Z,101161.62
2022-08-30T02:01:56.943Z,101161.99
2022-08-30T02:04:28.802Z,101161.66
2022-08-30T02:07:01.542Z,101161.25
2022-08-30T02:09:33.558Z,101164.95
2022-08-30T02:12:10.744Z,101162.23
2022-08-30T02:14:42.757Z,101161.13
2022-08-30T02:17:16.466Z,101162.63
2022-08-30T02:19:48.584Z,101164.55
2022-08-30T02:22:24.365Z,101167.91
2022-08-30T02:24:56.172Z,101167.67
2022-08-30T02:27:28.453Z,101171.91
2022-08-30T02:30:00.286Z,101171.23
2022-08-30T02:32:34.740Z,101175.02
2022-08-30T02:35:09.070Z,101176.83
2022-08-30T02:37:41.210Z,101174.80
2022-08-30T02:40:16.257Z,101175.02
2022-08-30T02:42:49.779Z,101179.11
2022-08-30T02:45:21.827Z,101179.92
2022-08-30T02:47:53.898Z,101181.45
2022-08-30T02:50:25.865Z,101179.75
2022-08-30T02:52:58.907Z,101176.72
2022-08-30T02:55:30.986Z,101176.80
2022-08-30T02:58:03.002Z,101178.27
2022-08-30T03:00:35.070Z,101176.26
2022-08-30T03:03:09.305Z,101173.39
2022-08-30T03:05:41.365Z,101177.48
2022-08-30T03:08:15.029Z,101181.14
2022-08-30T03:10:47.087Z,101181.89
2022-08-30T03:13:20.559Z,101184.91
2022-08-30T03:15:52.885Z,101187.80
2022-08-30T03:18:25.556Z,101192.30
2022-08-30T03:20:57.994Z,101197.17
2022-08-30T03:23:31.126Z,101203.08
2022-08-30T03:26:03.038Z,101202.69
2022-08-30T03:28:35.555Z,101202.42
2022-08-30T03:31:07.759Z,101201.73
2022-08-30T03:33:42.259Z,101204.33
2022-08-30T03:36:14.537Z,101198.94
2022-08-30T03:38:46.461Z,101198.80
2022-08-30T03:41:18.411Z,101196.70
2022-08-30T03:43:51.077Z,101197.42
2022-08-30T03:46:23.194Z,101201.59
2022-08-30T03:49:00.514Z,101197.86
2022-08-30T03:51:33.264Z,101206.68
2022-08-30T03:54:06.084Z,101201.55
2022-08-30T03:56:37.834Z,101204.00
2022-08-30T03:59:09.710Z,101204.95
2022-08-30T04:01:42.160Z,101209.13
2022-08-30T04:04:18.752Z,101208.73
2022-08-30T04:06:52.983Z,101213.43
2022-08-30T04:09:25.319Z,101215.87
2022-08-30T04:11:57.271Z,101216.73
2022-08-30T04:14:29.416Z,101214.86
2022-08-30T04:17:01.449Z,101219.84
2022-08-30T04:19:33.483Z,101221.12
2022-08-30T04:22:06.213Z,101224.52
2022-08-30T04:24:39.352Z,101223.83
2022-08-30T04:27:11.877Z,101226.33
2022-08-30T04:29:44.817Z,101230.44
2022-08-30T04:32:17.231Z,101235.48
2022-08-30T04:34:49.097Z,101237.38
2022-08-30T04:37:21.825Z,101240.21
2022-08-30T04:39:57.101Z,101242.55
2022-08-30T04:42:31.684Z,101244.31
2022-08-30T04:45:06.034Z,101241.69
2022-08-30T04:47:39.251Z,101241.23
2022-08-30T04:50:20.811Z,101247.66
2022-08-30T04:52:52.632Z,101245.05
2022-08-30T04:55:25.634Z,101245.60
2022-08-30T04:57:57.730Z,101245.95
2022-08-30T05:00:32.841Z,101246.67
2022-08-30T05:03:06.596Z,101245.02
2022-08-30T05:05:42.166Z,101247.81
2022-08-30T05:08:24.351Z,101249.52
2022-08-30T05:10:59.106Z,101253.60
2022-08-30T05:13:35.564Z,101255.45
2022-08-30T05:16:10.668Z,101258.63
2022-08-30T05:18:42.569Z,101255.55
2022-08-30T05:21:18.371Z,101255.21
2022-08-30T05:24:02.365Z,101256.04
2022-08-30T05:26:36.219Z,101251.30
2022-08-30T05:29:08.440Z,101254.39
2022-08-30T05:31:42.110Z,101256.50
2022-08-30T05:34:14.086Z,101258.69
2022-08-30T05:36:46.250Z,101258.15
2022-08-30T05:39:18.117Z,101259.25
2022-08-30T05:41:53.792Z,101257.71
2022-08-30T05:44:34.260Z,101256.14
2022-08-30T05:47:06.434Z,101259.13
2022-08-30T05:49:38.339Z,101254.38
2022-08-30T05:52:11.108Z,101256.27
2022-08-30T05:54:43.060Z,101255.74
2022-08-30T05:57:16.531Z,101253.02
2022-08-30T05:59:48.931Z,101256.41
2022-08-30T06:02:20.951Z,101256.00
2022-08-30T06:04:53.891Z,101255.48
2022-08-30T06:07:27.054Z,101258.08
2022-08-30T06:09:59.252Z,101261.65
2022-08-30T06:12:32.358Z,101265.81
2022-08-30T06:15:05.652Z,101266.56
2022-08-30T06:17:40.220Z,101267.95
2022-08-30T06:20:18.863Z,101264.40
2022-08-30T06:22:51.472Z,101267.56
2022-08-30T06:25:23.685Z,101274.13
2022-08-30T06:27:56.677Z,101272.32
2022-08-30T06:30:28.762Z,101268.03
2022-08-30T06:33:01.172Z,101267.10
2022-08-30T06:35:38.152Z,101271.89
2022-08-30T06:38:14.201Z,101272.70
2022-08-30T06:40:46.177Z,101273.06
2022-08-30T06:43:19.169Z,101268.83
2022-08-30T06:46:10.461Z,101272.14
2022-08-30T06:48:58.577Z,101271.52
2022-08-30T06:51:34.954Z,101270.58
2022-08-30T06:54:10.888Z,101268.73
2022-08-30T06:56:58.123Z,101271.10
2022-08-30T07:04:01.227Z,101275.44
2022-08-30T07:06:34.167Z,101273.82
2022-08-30T07:09:06.502Z,101274.33
2022-08-30T07:11:40.685Z,101271.88
2022-08-30T07:14:12.513Z,101275.42
2022-08-30T07:16:44.902Z,101275.58
2022-08-30T07:19:21.079Z,101274.55
2022-08-30T07:21:54.362Z,101276.78
2022-08-30T07:24:26.390Z,101277.56
2022-08-30T07:26:58.272Z,101283.33
2022-08-30T07:29:30.215Z,101283.65
2022-08-30T07:32:02.911Z,101289.02
2022-08-30T07:34:34.873Z,101294.53
2022-08-30T07:37:06.741Z,101295.15
2022-08-30T07:39:41.761Z,101302.16
2022-08-30T07:42:19.129Z,101299.08
2022-08-30T07:44:53.663Z,101300.83
2022-08-30T07:47:28.757Z,101302.67
2022-08-30T07:50:02.118Z,101302.52
2022-08-30T07:52:34.421Z,101303.95
2022-08-30T07:55:07.685Z,101307.29
2022-08-30T07:57:39.689Z,101310.69
2022-08-30T08:00:13.385Z,101313.45
2022-08-30T08:02:46.499Z,101322.18
2022-08-30T08:05:21.985Z,101313.98
2022-08-30T08:07:56.260Z,101316.84
2022-08-30T08:10:28.123Z,101320.64
2022-08-30T08:13:01.006Z,101320.37
2022-08-30T08:15:33.111Z,101319.89
2022-08-30T08:18:05.095Z,101319.09
2022-08-30T08:20:37.539Z,101321.77
2022-08-30T08:23:10.572Z,101324.89
2022-08-30T08:25:43.604Z,101327.03
2022-08-30T08:28:16.014Z,101327.30
2022-08-30T08:30:48.532Z,101329.12
2022-08-30T08:33:20.962Z,101337.19
2022-08-30T08:35:52.891Z,101339.63
2022-08-30T08:38:24.803Z,101342.95
2022-08-30T08:41:05.189Z,101345.38
2022-08-30T08:43:39.781Z,101346.06
2022-08-30T08:46:22.872Z,101348.58
2022-08-30T08:49:00.528Z,101350.38
2022-08-30T08:51:53.471Z,101355.52
2022-08-30T08:54:32.257Z,101355.52
2022-08-30T08:57:04.641Z,101357.09
2022-08-30T08:59:36.480Z,101356.89
2022-08-30T09:02:27.803Z,101359.14
2022-08-30T09:05:03.690Z,101360.48
2022-08-30T09:07:41.677Z,101358.59
2022-08-30T09:10:22.996Z,101356.45
2022-08-30T09:13:02.821Z,101360.68
2022-08-30T09:15:37.034Z,101362.25
2022-08-30T09:18:19.092Z,101364.80
2022-08-30T09:20:55.013Z,101370.56
2022-08-30T09:23:32.342Z,101368.81
2022-08-30T09:26:06.612Z,101364.98
2022-08-30T09:28:49.586Z,101368.37
2022-08-30T09:31:28.482Z,101365.13
2022-08-30T09:34:05.363Z,101362.36
2022-08-30T09:36:41.977Z,101360.64
2022-08-30T09:39:20.770Z,101357.45
2022-08-30T09:41:57.285Z,101352.96
2022-08-30T09:44:38.142Z,101350.07
2022-08-30T09:47:26.028Z,101354.76
2022-08-30T09:50:09.935Z,101352.23
2022-08-30T09:52:55.606Z,101349.48
2022-08-30T09:55:55.899Z,101351.06
2022-08-30T09:58:43.024Z,101345.87
2022-08-30T10:01:22.827Z,101344.75
2022-08-30T10:04:02.640Z,101344.80
2022-08-30T10:06:39.790Z,101341.36
2022-08-30T10:09:27.882Z,101342.02
2022-08-30T10:12:12.346Z,101338.34
2022-08-30T10:15:03.955Z,101338.27
2022-08-30T10:17:48.794Z,101334.59
2022-08-30T10:20:32.884Z,101334.03
2022-08-30T10:23:10.541Z,101334.85
2022-08-30T10:25:46.847Z,101333.00
2022-08-30T10:28:29.026Z,101336.10
2022-08-30T10:31:05.040Z,101340.68
2022-08-30T10:33:43.498Z,101344.54
2022-08-30T10:36:19.047Z,101340.70
2022-08-30T10:38:54.804Z,101335.67
2022-08-30T10:41:37.339Z,101334.00
2022-08-30T10:44:14.735Z,101332.91
2022-08-30T10:47:00.621Z,101332.55
2022-08-30T10:49:40.428Z,101336.62
2022-08-30T10:52:25.586Z,101333.77
2022-08-30T10:55:02.881Z,101326.86
2022-08-30T10:57:36.759Z,101328.93
2022-08-30T11:00:14.690Z,101331.38
2022-08-30T11:03:26.640Z,101326.36
2022-08-30T11:06:22.941Z,101328.71
2022-08-30T11:09:26.668Z,101328.52
2022-08-30T11:12:17.136Z,101333.71
2022-08-30T11:14:50.527Z,101334.92
2022-08-30T11:17:32.510Z,101335.25
2022-08-30T11:20:24.165Z,101337.61
2022-08-30T11:23:25.842Z,101335.35
2022-08-30T11:26:01.974Z,101332.77
2022-08-30T11:29:08.751Z,101333.81
2022-08-30T11:31:44.625Z,101336.23
2022-08-30T11:34:54.377Z,101336.98
2022-08-30T11:37:43.301Z,101337.63
2022-08-30T11:40:49.494Z,101335.07
2022-08-30T11:43:53.144Z,101330.28
2022-08-30T11:46:39.504Z,101331.30
2022-08-30T11:52:37.131Z,101328.55
2022-08-30T11:55:38.844Z,101330.10
2022-08-30T11:58:26.062Z,101324.85
2022-08-30T12:01:49.686Z,101328.87
2022-08-30T12:04:44.628Z,101328.36
2022-08-30T12:07:53.550Z,101327.11
2022-08-30T12:10:37.683Z,101323.42
2022-08-30T12:13:10.781Z,101321.77
2022-08-30T12:15:59.560Z,101317.26
2022-08-30T12:18:40.794Z,101321.34
2022-08-30T12:21:31.237Z,101321.41
2022-08-30T12:24:24.625Z,101313.41
2022-08-30T12:26:58.401Z,101308.36
2022-08-30T12:29:32.484Z,101312.73
2022-08-30T12:32:17.688Z,101316.25
2022-08-30T12:34:55.163Z,101309.89
2022-08-30T12:37:29.669Z,101308.39
2022-08-30T12:40:10.201Z,101307.73
2022-08-30T12:42:50.184Z,101306.32
2022-08-30T12:45:27.100Z,101302.66
2022-08-30T12:48:01.833Z,101302.12
2022-08-30T12:50:37.765Z,101304.94
2022-08-30T12:53:14.071Z,101302.48
2022-08-30T12:55:58.063Z,101298.80
2022-08-30T12:58:43.619Z,101296.56
2022-08-30T13:01:27.218Z,101295.81
2022-08-30T13:04:03.677Z,101299.18
2022-08-30T13:06:45.049Z,101300.69
2022-08-30T13:09:32.644Z,101298.05
2022-08-30T13:12:07.241Z,101296.79
2022-08-30T13:14:43.641Z,101296.02
2022-08-30T13:17:25.801Z,101293.51
2022-08-30T13:20:15.163Z,101287.57
2022-08-30T13:23:06.501Z,101289.04
2022-08-30T13:25:40.245Z,101289.55
2022-08-30T13:28:12.400Z,101286.23
2022-08-30T13:30:46.825Z,101291.96
2022-08-30T13:33:19.218Z,101289.75
2022-08-30T13:35:51.122Z,101287.41
2022-08-30T13:38:23.065Z,101283.23
2022-08-30T13:40:56.517Z,101281.26
2022-08-30T13:43:28.804Z,101279.86
2022-08-30T13:46:23.230Z,101274.52
2022-08-30T13:49:01.364Z,101274.16
2022-08-30T13:51:34.916Z,101276.81
2022-08-30T13:54:07.259Z,101276.54
2022-08-30T13:56:39.204Z,101277.95
2022-08-30T13:59:11.037Z,101276.23
2022-08-30T14:04:35.865Z,101278.44
2022-08-30T14:07:14.059Z,101271.65
2022-08-30T14:09:47.356Z,101269.45
2022-08-30T14:12:52.391Z,101269.39
2022-08-30T14:15:12.941Z,101267.55
2022-08-30T14:17:45.033Z,101264.23
2022-08-30T14:20:18.201Z,101264.15
2022-08-30T14:22:50.058Z,101260.63
2022-08-30T14:25:22.408Z,101258.02
2022-08-30T14:27:54.279Z,101252.69
2022-08-30T14:30:27.039Z,101253.63
2022-08-30T14:32:59.015Z,101249.98
2022-08-30T14:35:31.144Z,101252.91
2022-08-30T14:38:03.714Z,101256.27
2022-08-30T14:40:35.678Z,101256.33
2022-08-30T14:43:08.762Z,101257.50
2022-08-30T14:45:41.755Z,101256.20
2022-08-30T14:48:15.414Z,101251.11
2022-08-30T14:50:47.373Z,101259.25
2022-08-30T14:53:19.305Z,101256.70
2022-08-30T14:55:51.116Z,101255.33
2022-08-30T14:58:22.993Z,101251.37
2022-08-30T15:00:55.406Z,101250.47
2022-08-30T15:03:27.708Z,101252.48
2022-08-30T15:05:59.549Z,101255.98
2022-08-30T15:08:31.530Z,101253.01
2022-08-30T15:11:07.717Z,101251.45
2022-08-30T15:13:40.427Z,101251.95
2022-08-30T15:16:18.099Z,101253.52
2022-08-30T15:18:51.143Z,101252.39
2022-08-30T15:21:28.473Z,101250.91
2022-08-30T15:24:01.511Z,101251.26
2022-08-30T15:26:33.399Z,101253.94
2022-08-30T15:29:05.261Z,101252.98
2022-08-30T15:31:38.693Z,101251.02
2022-08-30T15:34:12.874Z,101249.05
2022-08-30T15:36:46.225Z,101249.38
2022-08-30T15:39:19.136Z,101247.55
2022-08-30T15:41:57.069Z,101252.45
2022-08-30T15:44:29.857Z,101253.36
2022-08-30T15:47:02.269Z,101247.39
2022-08-30T15:49:34.403Z,101251.20
2022-08-30T15:52:08.085Z,101246.80
2022-08-30T15:54:40.456Z,101245.70
2022-08-30T15:57:12.449Z,101246.23
2022-08-30T15:59:44.255Z,101245.05
2022-08-30T16:02:16.790Z,101241.11
2022-08-30T16:04:48.940Z,101239.78
2022-08-30T16:07:24.682Z,101240.27
2022-08-30T16:09:57.878Z,101239.73
2022-08-30T16:12:30.159Z,101242.42
2022-08-30T16:15:02.762Z,101240.97
2022-08-30T16:17:35.895Z,101243.35
2022-08-30T16:20:20.876Z,101242.71
2022-08-30T16:22:52.857Z,101238.85
2022-08-30T16:25:25.112Z,101237.35
2022-08-30T16:28:12.396Z,101235.21
2022-08-30T16:30:45.872Z,101236.95
2022-08-30T16:33:18.395Z,101232.43
2022-08-30T16:35:53.155Z,101230.17
2022-08-30T16:38:26.902Z,101233.35
2022-08-30T16:41:01.225Z,101236.89
2022-08-30T16:43:35.079Z,101238.05
2022-08-30T16:46:09.059Z,101239.20
2022-08-30T16:48:44.867Z,101235.23
2022-08-30T16:51:21.065Z,101233.23
2022-08-30T16:53:54.925Z,101232.98
2022-08-30T16:56:29.552Z,101232.11
2022-08-30T17:01:55.780Z,101232.48
2022-08-30T17:04:27.670Z,101236.58
2022-08-30T17:06:59.509Z,101233.58
2022-08-30T17:09:31.483Z,101234.51
2022-08-30T17:12:04.308Z,101237.02
2022-08-30T17:14:36.332Z,101236.82
2022-08-30T17:17:08.976Z,101239.86
2022-08-30T17:19:43.087Z,101234.72
2022-08-30T17:22:16.029Z,101235.40
2022-08-30T17:24:47.891Z,101235.66
2022-08-30T17:27:21.079Z,101238.54
2022-08-30T17:29:53.258Z,101239.13
2022-08-30T17:32:25.320Z,101243.14
2022-08-30T17:34:57.263Z,101242.09
2022-08-30T17:37:29.330Z,101246.55
2022-08-30T17:40:02.192Z,101247.67
2022-08-30T17:42:37.522Z,101248.28
2022-08-30T17:45:13.951Z,101250.09
2022-08-30T17:47:45.982Z,101256.07
2022-08-30T17:50:19.450Z,101253.59
2022-08-30T17:52:51.567Z,101254.41
2022-08-30T17:55:23.571Z,101256.35
2022-08-30T17:57:56.373Z,101258.47
2022-08-30T18:00:32.723Z,101260.89
2022-08-30T18:03:04.986Z,101263.64
2022-08-30T18:08:30.169Z,101263.35
2022-08-30T18:11:02.047Z,101268.67
2022-08-30T18:13:34.271Z,101270.45
2022-08-30T18:16:07.415Z,101273.09
2022-08-30T18:18:39.687Z,101277.55
2022-08-30T18:21:17.391Z,101277.39
2022-08-30T18:23:50.252Z,101282.02
2022-08-30T18:26:24.100Z,101284.98
2022-08-30T18:28:56.681Z,101286.34
2022-08-30T18:31:28.837Z,101288.38
2022-08-30T18:34:01.666Z,101286.83
2022-08-30T18:36:34.198Z,101289.30
2022-08-30T18:39:06.390Z,101286.92
2022-08-30T18:41:43.126Z,101292.33
2022-08-30T18:44:27.660Z,101290.58
2022-08-30T18:47:03.632Z,101296.48
2022-08-30T18:49:37.419Z,101290.98
2022-08-30T18:52:10.990Z,101294.22
2022-08-30T18:54:52.741Z,101293.36
2022-08-30T18:57:25.170Z,101290.52
2022-08-30T18:59:57.152Z,101293.52
2022-08-30T19:02:29.090Z,101291.52
2022-08-30T19:05:01.225Z,101292.83
2022-08-30T19:07:34.392Z,101289.63
2022-08-30T19:10:20.936Z,101296.28
2022-08-30T19:12:53.384Z,101300.23
2022-08-30T19:15:25.667Z,101297.45
2022-08-30T19:17:58.405Z,101296.87
2022-08-30T19:20:31.655Z,101301.56
2022-08-30T19:23:09.898Z,101305.33
2022-08-30T19:25:43.994Z,101302.88
2022-08-30T19:28:16.407Z,101301.81
2022-08-30T19:30:49.159Z,101302.39
2022-08-30T19:33:21.457Z,101300.70
2022-08-30T19:35:53.748Z,101302.49
2022-08-30T19:38:25.890Z,101302.25
2022-08-30T19:41:03.851Z,101305.92
2022-08-30T19:43:35.687Z,101305.34
2022-08-30T19:46:07.962Z,101305.81
2022-08-30T19:48:43.160Z,101306.30
2022-08-30T19:51:17.155Z,101308.27
2022-08-30T19:53:48.953Z,101306.02
2022-08-30T19:56:20.807Z,101304.73
2022-08-30T19:58:54.625Z,101307.83
2022-08-30T20:01:33.597Z,101305.96
2022-08-30T20:04:06.482Z,101304.77
2022-08-30T20:06:38.607Z,101304.64
2022-08-30T20:09:10.704Z,101303.87
2022-08-30T20:11:44.450Z,101300.42
2022-08-30T20:14:17.695Z,101302.30
2022-08-30T20:16:51.474Z,101302.95
2022-08-30T20:19:27.612Z,101303.58
2022-08-30T20:22:07.707Z,101308.16
2022-08-30T20:24:23.475Z,101230.61
2022-08-30T20:24:26.867Z,101263.60
2022-08-30T20:24:43.770Z,101303.40
2022-08-30T20:27:16.056Z,101307.48
2022-08-30T20:29:47.905Z,101303.15
2022-08-30T20:32:20.471Z,101306.41
2022-08-30T20:34:53.323Z,101304.14
2022-08-30T20:37:25.206Z,101308.44
2022-08-30T20:40:00.365Z,101311.73
2022-08-30T20:42:33.552Z,101312.09
2022-08-30T20:45:07.186Z,101314.30
2022-08-30T20:47:40.335Z,101315.52
2022-08-30T20:50:18.210Z,101314.63
2022-08-30T20:52:50.240Z,101313.42
2022-08-30T20:55:22.364Z,101313.46
2022-08-30T20:57:55.085Z,101316.10
2022-08-30T21:00:27.574Z,101316.86
2022-08-30T21:03:00.493Z,101317.83
2022-08-30T21:05:32.767Z,101320.30
2022-08-30T21:08:10.013Z,101322.73
2022-08-30T21:10:42.395Z,101320.48
2022-08-30T21:13:14.306Z,101319.80
2022-08-30T21:15:46.430Z,101325.30
2022-08-30T21:18:18.448Z,101327.59
2022-08-30T21:20:50.428Z,101328.70
2022-08-30T21:23:22.287Z,101328.91
2022-08-30T21:25:54.152Z,101329.00
2022-08-30T21:28:26.056Z,101331.20
2022-08-30T21:31:11.171Z,101329.76
2022-08-30T21:33:43.629Z,101331.21
2022-08-30T21:36:33.430Z,101331.54
2022-08-30T21:39:06.260Z,101330.31
2022-08-30T21:41:39.031Z,101332.05
2022-08-30T21:44:13.148Z,101337.77
2022-08-30T21:46:46.127Z,101339.30
2022-08-30T21:49:20.766Z,101341.59
2022-08-30T21:51:53.753Z,101340.13
2022-08-30T21:54:31.223Z,101339.07
2022-08-30T21:57:07.131Z,101345.34
2022-08-30T21:59:39.135Z,101345.73
2022-08-30T22:02:12.272Z,101348.69
2022-08-30T22:04:44.498Z,101351.23
2022-08-30T22:07:16.528Z,101359.22
2022-08-30T22:09:48.407Z,101360.89
2022-08-30T22:12:20.189Z,101360.97
2022-08-30T22:14:53.216Z,101356.80
2022-08-30T22:17:25.601Z,101360.77
2022-08-30T22:19:57.449Z,101362.73
2022-08-30T22:22:29.463Z,101361.84
2022-08-30T22:25:02.158Z,101362.27
2022-08-30T22:27:34.736Z,101357.36
2022-08-30T22:30:12.566Z,101356.23
2022-08-30T22:32:44.400Z,101356.55
2022-08-30T22:35:17.357Z,101353.95
2022-08-30T22:37:53.416Z,101353.20
2022-08-30T22:40:28.276Z,101353.77
2022-08-30T22:43:05.275Z,101350.77
2022-08-30T22:45:42.784Z,101353.23
2022-08-30T22:48:15.057Z,101350.70
2022-08-30T22:50:49.901Z,101350.30
2022-08-30T22:53:21.901Z,101349.40
2022-08-30T22:55:53.744Z,101347.30
2022-08-30T22:58:26.119Z,101349.21
2022-08-30T23:01:01.227Z,101348.42
2022-08-30T23:03:35.265Z,101355.17
2022-08-30T23:06:07.525Z,101353.02
2022-08-30T23:08:39.738Z,101355.86
2022-08-30T23:11:13.001Z,101357.88
2022-08-30T23:13:45.226Z,101362.10
2022-08-30T23:16:18.567Z,101362.77
2022-08-30T23:18:51.026Z,101360.46
2022-08-30T23:21:27.050Z,101360.42
2022-08-30T23:24:17.595Z,101358.51
2022-08-30T23:27:07.402Z,101357.64
2022-08-30T23:29:57.133Z,101360.42
2022-08-30T23:32:46.607Z,101357.92
2022-08-30T23:35:35.969Z,101355.13
2022-08-30T23:38:26.182Z,101356.42
2022-08-30T23:41:15.970Z,101360.48
2022-08-30T23:44:06.140Z,101360.08
2022-08-30T23:46:57.132Z,101361.11
2022-08-30T23:52:34.034Z,101358.00
2022-08-30T23:55:21.875Z,101353.75
2022-08-30T23:58:11.467Z,101356.49
